sensor_id;sensor_type;location;lat;lon;timestamp;P1;durP1;ratioP1;P2;durP2;ratioP2
15393;SDS011;7795;47.986;11.868;2022-08-07T00:01:29;6.80;;;6.13;;
15393;SDS011;7795;47.986;11.868;2022-08-07T00:03:54;7.40;;;6.50;;
15393;SDS011;7795;47.986;11.868;2022-08-07T00:06:20;6.77;;;5.97;;
15393;SDS011;7795;47.986;11.868;2022-08-07T00:08:46;7.50;;;5.87;;
15393;SDS011;7795;47.986;11.868;2022-08-07T00:11:13;7.27;;;6.07;;
15393;SDS011;7795;47.986;11.868;2022-08-07T00:13:39;7.23;;;5.87;;
15393;SDS011;7795;47.986;11.868;2022-08-07T00:16:06;5.57;;;5.07;;
15393;SDS011;7795;47.986;11.868;2022-08-07T00:18:32;5.87;;;5.27;;
15393;SDS011;7795;47.986;11.868;2022-08-07T00:20:58;6.80;;;6.10;;
15393;SDS011;7795;47.986;11.868;2022-08-07T00:23:25;5.80;;;5.23;;
15393;SDS011;7795;47.986;11.868;2022-08-07T00:25:51;6.67;;;5.50;;
15393;SDS011;7795;47.986;11.868;2022-08-07T00:28:19;6.43;;;4.80;;
15393;SDS011;7795;47.986;11.868;2022-08-07T00:30:45;4.67;;;4.27;;
15393;SDS011;7795;47.986;11.868;2022-08-07T00:33:11;5.93;;;4.57;;
15393;SDS011;7795;47.986;11.868;2022-08-07T00:35:37;6.07;;;5.07;;
15393;SDS011;7795;47.986;11.868;2022-08-07T00:38:03;5.23;;;4.73;;
15393;SDS011;7795;47.986;11.868;2022-08-07T00:40:29;5.03;;;4.53;;
15393;SDS011;7795;47.986;11.868;2022-08-07T00:42:55;5.10;;;4.60;;
15393;SDS011;7795;47.986;11.868;2022-08-07T00:45:23;5.07;;;4.57;;
15393;SDS011;7795;47.986;11.868;2022-08-07T00:47:49;4.30;;;3.90;;
15393;SDS011;7795;47.986;11.868;2022-08-07T00:50:15;4.80;;;4.40;;
15393;SDS011;7795;47.986;11.868;2022-08-07T00:52:42;4.47;;;3.80;;
15393;SDS011;7795;47.986;11.868;2022-08-07T00:55:08;4.50;;;4.10;;
15393;SDS011;7795;47.986;11.868;2022-08-07T00:57:34;5.13;;;4.00;;
15393;SDS011;7795;47.986;11.868;2022-08-07T01:00:00;4.53;;;4.13;;
15393;SDS011;7795;47.986;11.868;2022-08-07T01:02:28;4.60;;;4.00;;
15393;SDS011;7795;47.986;11.868;2022-08-07T01:04:54;4.67;;;4.07;;
15393;SDS011;7795;47.986;11.868;2022-08-07T01:07:20;3.93;;;3.60;;
15393;SDS011;7795;47.986;11.868;2022-08-07T01:09:47;3.87;;;3.57;;
15393;SDS011;7795;47.986;11.868;2022-08-07T01:12:12;4.07;;;3.57;;
15393;SDS011;7795;47.986;11.868;2022-08-07T01:14:39;4.30;;;3.90;;
15393;SDS011;7795;47.986;11.868;2022-08-07T01:17:05;4.10;;;3.27;;
15393;SDS011;7795;47.986;11.868;2022-08-07T01:19:33;4.07;;;3.50;;
15393;SDS011;7795;47.986;11.868;2022-08-07T01:22:02;4.90;;;4.40;;
15393;SDS011;7795;47.986;11.868;2022-08-07T01:24:28;4.90;;;3.77;;
15393;SDS011;7795;47.986;11.868;2022-08-07T01:26:55;4.90;;;3.60;;
15393;SDS011;7795;47.986;11.868;2022-08-07T01:29:22;4.53;;;4.13;;
15393;SDS011;7795;47.986;11.868;2022-08-07T01:31:49;5.63;;;3.93;;
15393;SDS011;7795;47.986;11.868;2022-08-07T01:34:16;3.70;;;3.40;;
15393;SDS011;7795;47.986;11.868;2022-08-07T01:36:42;6.53;;;3.77;;
15393;SDS011;7795;47.986;11.868;2022-08-07T01:39:09;4.00;;;3.60;;
15393;SDS011;7795;47.986;11.868;2022-08-07T01:41:36;4.20;;;3.70;;
15393;SDS011;7795;47.986;11.868;2022-08-07T01:44:03;3.10;;;2.73;;
15393;SDS011;7795;47.986;11.868;2022-08-07T01:46:29;3.57;;;3.23;;
15393;SDS011;7795;47.986;11.868;2022-08-07T01:48:55;3.83;;;3.17;;
15393;SDS011;7795;47.986;11.868;2022-08-07T01:51:21;3.30;;;3.00;;
15393;SDS011;7795;47.986;11.868;2022-08-07T01:53:50;4.87;;;3.60;;
15393;SDS011;7795;47.986;11.868;2022-08-07T01:56:21;3.47;;;3.03;;
15393;SDS011;7795;47.986;11.868;2022-08-07T01:58:51;3.80;;;3.20;;
15393;SDS011;7795;47.986;11.868;2022-08-07T02:01:19;3.23;;;2.93;;
15393;SDS011;7795;47.986;11.868;2022-08-07T02:03:50;3.10;;;2.70;;
15393;SDS011;7795;47.986;11.868;2022-08-07T02:06:20;3.13;;;2.80;;
15393;SDS011;7795;47.986;11.868;2022-08-07T02:08:49;3.90;;;3.00;;
15393;SDS011;7795;47.986;11.868;2022-08-07T02:11:17;3.43;;;3.03;;
15393;SDS011;7795;47.986;11.868;2022-08-07T02:13:44;3.10;;;2.80;;
15393;SDS011;7795;47.986;11.868;2022-08-07T02:16:11;4.10;;;2.90;;
15393;SDS011;7795;47.986;11.868;2022-08-07T02:18:40;3.13;;;2.70;;
15393;SDS011;7795;47.986;11.868;2022-08-07T02:21:08;3.23;;;2.93;;
15393;SDS011;7795;47.986;11.868;2022-08-07T02:23:35;5.47;;;2.90;;
15393;SDS011;7795;47.986;11.868;2022-08-07T02:26:03;3.20;;;2.90;;
15393;SDS011;7795;47.986;11.868;2022-08-07T02:28:30;2.93;;;2.63;;
15393;SDS011;7795;47.986;11.868;2022-08-07T02:31:00;3.57;;;2.80;;
15393;SDS011;7795;47.986;11.868;2022-08-07T02:33:27;3.80;;;2.80;;
15393;SDS011;7795;47.986;11.868;2022-08-07T02:35:54;4.67;;;3.13;;
15393;SDS011;7795;47.986;11.868;2022-08-07T02:38:21;3.60;;;2.63;;
15393;SDS011;7795;47.986;11.868;2022-08-07T02:40:50;3.07;;;2.60;;
15393;SDS011;7795;47.986;11.868;2022-08-07T02:43:17;3.40;;;2.70;;
15393;SDS011;7795;47.986;11.868;2022-08-07T02:45:43;4.73;;;3.00;;
15393;SDS011;7795;47.986;11.868;2022-08-07T02:48:12;3.70;;;2.93;;
15393;SDS011;7795;47.986;11.868;2022-08-07T02:50:40;3.53;;;2.93;;
15393;SDS011;7795;47.986;11.868;2022-08-07T02:53:09;3.83;;;3.43;;
15393;SDS011;7795;47.986;11.868;2022-08-07T02:55:41;3.60;;;3.30;;
15393;SDS011;7795;47.986;11.868;2022-08-07T02:58:11;3.30;;;3.00;;
15393;SDS011;7795;47.986;11.868;2022-08-07T03:00:39;3.47;;;3.07;;
15393;SDS011;7795;47.986;11.868;2022-08-07T03:03:07;3.80;;;3.43;;
15393;SDS011;7795;47.986;11.868;2022-08-07T03:05:36;3.80;;;3.20;;
15393;SDS011;7795;47.986;11.868;2022-08-07T03:08:03;3.50;;;3.20;;
15393;SDS011;7795;47.986;11.868;2022-08-07T03:10:31;4.40;;;2.87;;
15393;SDS011;7795;47.986;11.868;2022-08-07T03:12:57;3.23;;;2.93;;
15393;SDS011;7795;47.986;11.868;2022-08-07T03:15:25;3.33;;;3.03;;
15393;SDS011;7795;47.986;11.868;2022-08-07T03:17:52;5.03;;;2.90;;
15393;SDS011;7795;47.986;11.868;2022-08-07T03:20:18;5.13;;;3.17;;
15393;SDS011;7795;47.986;11.868;2022-08-07T03:22:45;3.17;;;2.60;;
15393;SDS011;7795;47.986;11.868;2022-08-07T03:25:12;3.80;;;3.00;;
15393;SDS011;7795;47.986;11.868;2022-08-07T03:30:06;2.73;;;2.37;;
15393;SDS011;7795;47.986;11.868;2022-08-07T03:32:36;2.87;;;2.67;;
15393;SDS011;7795;47.986;11.868;2022-08-07T03:35:06;2.37;;;2.17;;
15393;SDS011;7795;47.986;11.868;2022-08-07T03:37:36;3.27;;;2.60;;
15393;SDS011;7795;47.986;11.868;2022-08-07T03:40:05;2.20;;;2.00;;
15393;SDS011;7795;47.986;11.868;2022-08-07T03:42:33;2.93;;;2.57;;
15393;SDS011;7795;47.986;11.868;2022-08-07T03:45:00;2.50;;;2.30;;
15393;SDS011;7795;47.986;11.868;2022-08-07T03:47:26;2.40;;;2.20;;
15393;SDS011;7795;47.986;11.868;2022-08-07T03:49:53;3.20;;;2.30;;
15393;SDS011;7795;47.986;11.868;2022-08-07T03:52:21;2.20;;;2.00;;
15393;SDS011;7795;47.986;11.868;2022-08-07T03:54:50;3.57;;;2.50;;
15393;SDS011;7795;47.986;11.868;2022-08-07T03:57:18;2.77;;;2.00;;
15393;SDS011;7795;47.986;11.868;2022-08-07T03:59:45;2.10;;;2.00;;
15393;SDS011;7795;47.986;11.868;2022-08-07T04:02:10;2.47;;;2.20;;
15393;SDS011;7795;47.986;11.868;2022-08-07T04:04:37;1.97;;;1.77;;
15393;SDS011;7795;47.986;11.868;2022-08-07T04:07:05;2.80;;;2.30;;
15393;SDS011;7795;47.986;11.868;2022-08-07T04:09:32;2.90;;;1.90;;
15393;SDS011;7795;47.986;11.868;2022-08-07T04:11:59;4.33;;;1.90;;
15393;SDS011;7795;47.986;11.868;2022-08-07T04:14:27;2.10;;;1.90;;
15393;SDS011;7795;47.986;11.868;2022-08-07T04:16:53;3.27;;;2.10;;
15393;SDS011;7795;47.986;11.868;2022-08-07T04:19:19;2.30;;;2.10;;
15393;SDS011;7795;47.986;11.868;2022-08-07T04:21:45;2.23;;;2.03;;
15393;SDS011;7795;47.986;11.868;2022-08-07T04:24:11;2.30;;;2.10;;
15393;SDS011;7795;47.986;11.868;2022-08-07T04:26:37;2.63;;;2.10;;
15393;SDS011;7795;47.986;11.868;2022-08-07T04:29:04;2.53;;;2.10;;
15393;SDS011;7795;47.986;11.868;2022-08-07T04:31:36;2.43;;;2.23;;
15393;SDS011;7795;47.986;11.868;2022-08-07T04:34:02;2.33;;;2.13;;
15393;SDS011;7795;47.986;11.868;2022-08-07T04:36:28;3.30;;;2.17;;
15393;SDS011;7795;47.986;11.868;2022-08-07T04:38:54;3.80;;;2.70;;
15393;SDS011;7795;47.986;11.868;2022-08-07T04:41:20;5.17;;;2.40;;
15393;SDS011;7795;47.986;11.868;2022-08-07T04:43:46;2.37;;;2.17;;
15393;SDS011;7795;47.986;11.868;2022-08-07T04:46:16;3.20;;;2.37;;
15393;SDS011;7795;47.986;11.868;2022-08-07T04:48:48;3.23;;;2.50;;
15393;SDS011;7795;47.986;11.868;2022-08-07T04:51:25;3.20;;;2.27;;
15393;SDS011;7795;47.986;11.868;2022-08-07T04:54:07;2.40;;;2.20;;
15393;SDS011;7795;47.986;11.868;2022-08-07T04:56:43;2.47;;;2.27;;
15393;SDS011;7795;47.986;11.868;2022-08-07T04:59:14;3.33;;;2.53;;
15393;SDS011;7795;47.986;11.868;2022-08-07T05:01:46;2.03;;;1.83;;
15393;SDS011;7795;47.986;11.868;2022-08-07T05:04:24;4.03;;;2.17;;
15393;SDS011;7795;47.986;11.868;2022-08-07T05:07:00;2.43;;;2.23;;
15393;SDS011;7795;47.986;11.868;2022-08-07T05:09:33;2.90;;;1.90;;
15393;SDS011;7795;47.986;11.868;2022-08-07T05:12:05;2.63;;;2.43;;
15393;SDS011;7795;47.986;11.868;2022-08-07T05:14:35;4.57;;;2.60;;
15393;SDS011;7795;47.986;11.868;2022-08-07T05:17:03;2.17;;;1.97;;
15393;SDS011;7795;47.986;11.868;2022-08-07T05:19:36;2.33;;;2.13;;
15393;SDS011;7795;47.986;11.868;2022-08-07T05:22:06;2.27;;;2.00;;
15393;SDS011;7795;47.986;11.868;2022-08-07T05:24:34;3.17;;;2.17;;
15393;SDS011;7795;47.986;11.868;2022-08-07T05:27:01;2.23;;;2.00;;
15393;SDS011;7795;47.986;11.868;2022-08-07T05:29:29;1.90;;;1.80;;
15393;SDS011;7795;47.986;11.868;2022-08-07T05:31:56;2.07;;;1.80;;
15393;SDS011;7795;47.986;11.868;2022-08-07T05:34:23;2.50;;;2.03;;
15393;SDS011;7795;47.986;11.868;2022-08-07T05:36:52;2.37;;;1.80;;
15393;SDS011;7795;47.986;11.868;2022-08-07T05:39:21;4.27;;;2.40;;
15393;SDS011;7795;47.986;11.868;2022-08-07T05:41:47;2.27;;;2.03;;
15393;SDS011;7795;47.986;11.868;2022-08-07T05:44:14;4.03;;;2.10;;
15393;SDS011;7795;47.986;11.868;2022-08-07T05:46:42;2.53;;;2.20;;
15393;SDS011;7795;47.986;11.868;2022-08-07T05:49:10;2.37;;;2.17;;
15393;SDS011;7795;47.986;11.868;2022-08-07T05:51:36;2.20;;;2.00;;
15393;SDS011;7795;47.986;11.868;2022-08-07T05:54:04;1.70;;;1.60;;
15393;SDS011;7795;47.986;11.868;2022-08-07T05:56:30;1.87;;;1.70;;
15393;SDS011;7795;47.986;11.868;2022-08-07T05:58:58;2.40;;;1.90;;
15393;SDS011;7795;47.986;11.868;2022-08-07T06:01:28;2.30;;;2.10;;
15393;SDS011;7795;47.986;11.868;2022-08-07T06:03:54;3.00;;;2.00;;
15393;SDS011;7795;47.986;11.868;2022-08-07T06:06:21;2.90;;;2.00;;
15393;SDS011;7795;47.986;11.868;2022-08-07T06:08:48;1.97;;;1.87;;
15393;SDS011;7795;47.986;11.868;2022-08-07T06:11:16;2.23;;;2.03;;
15393;SDS011;7795;47.986;11.868;2022-08-07T06:13:42;2.07;;;1.97;;
15393;SDS011;7795;47.986;11.868;2022-08-07T06:16:08;2.20;;;1.90;;
15393;SDS011;7795;47.986;11.868;2022-08-07T06:18:34;1.87;;;1.77;;
15393;SDS011;7795;47.986;11.868;2022-08-07T06:21:02;1.87;;;1.73;;
15393;SDS011;7795;47.986;11.868;2022-08-07T06:23:29;1.70;;;1.60;;
15393;SDS011;7795;47.986;11.868;2022-08-07T06:25:55;2.33;;;2.10;;
15393;SDS011;7795;47.986;11.868;2022-08-07T06:28:22;1.73;;;1.63;;
15393;SDS011;7795;47.986;11.868;2022-08-07T06:30:49;3.83;;;2.03;;
15393;SDS011;7795;47.986;11.868;2022-08-07T06:33:15;3.00;;;1.90;;
15393;SDS011;7795;47.986;11.868;2022-08-07T06:35:41;2.20;;;1.90;;
15393;SDS011;7795;47.986;11.868;2022-08-07T06:38:07;2.27;;;2.07;;
15393;SDS011;7795;47.986;11.868;2022-08-07T06:40:34;2.80;;;2.10;;
15393;SDS011;7795;47.986;11.868;2022-08-07T06:43:04;1.90;;;1.57;;
15393;SDS011;7795;47.986;11.868;2022-08-07T06:45:34;2.23;;;2.03;;
15393;SDS011;7795;47.986;11.868;2022-08-07T06:48:00;2.10;;;1.90;;
15393;SDS011;7795;47.986;11.868;2022-08-07T06:50:27;2.23;;;1.87;;
15393;SDS011;7795;47.986;11.868;2022-08-07T06:52:54;3.07;;;2.10;;
15393;SDS011;7795;47.986;11.868;2022-08-07T06:55:23;2.43;;;1.90;;
15393;SDS011;7795;47.986;11.868;2022-08-07T06:57:57;2.30;;;1.60;;
15393;SDS011;7795;47.986;11.868;2022-08-07T07:00:26;2.20;;;1.90;;
15393;SDS011;7795;47.986;11.868;2022-08-07T07:02:57;2.30;;;1.80;;
15393;SDS011;7795;47.986;11.868;2022-08-07T07:05:24;2.87;;;1.90;;
15393;SDS011;7795;47.986;11.868;2022-08-07T07:07:50;1.70;;;1.60;;
15393;SDS011;7795;47.986;11.868;2022-08-07T07:10:16;2.47;;;1.90;;
15393;SDS011;7795;47.986;11.868;2022-08-07T07:12:51;2.83;;;2.10;;
15393;SDS011;7795;47.986;11.868;2022-08-07T07:15:19;3.03;;;2.30;;
15393;SDS011;7795;47.986;11.868;2022-08-07T07:17:59;2.73;;;2.50;;
15393;SDS011;7795;47.986;11.868;2022-08-07T07:20:35;2.20;;;2.00;;
15393;SDS011;7795;47.986;11.868;2022-08-07T07:23:04;3.87;;;2.00;;
15393;SDS011;7795;47.986;11.868;2022-08-07T07:25:31;2.30;;;2.10;;
15393;SDS011;7795;47.986;11.868;2022-08-07T07:27:59;1.83;;;1.73;;
15393;SDS011;7795;47.986;11.868;2022-08-07T07:30:36;2.47;;;2.10;;
15393;SDS011;7795;47.986;11.868;2022-08-07T07:33:06;2.57;;;2.37;;
15393;SDS011;7795;47.986;11.868;2022-08-07T07:35:34;2.27;;;2.07;;
15393;SDS011;7795;47.986;11.868;2022-08-07T07:38:01;2.33;;;2.13;;
15393;SDS011;7795;47.986;11.868;2022-08-07T07:40:30;2.23;;;1.87;;
15393;SDS011;7795;47.986;11.868;2022-08-07T07:42:57;3.27;;;2.27;;
15393;SDS011;7795;47.986;11.868;2022-08-07T07:45:27;2.37;;;2.17;;
15393;SDS011;7795;47.986;11.868;2022-08-07T07:47:56;2.40;;;2.20;;
15393;SDS011;7795;47.986;11.868;2022-08-07T07:50:24;2.60;;;1.80;;
15393;SDS011;7795;47.986;11.868;2022-08-07T07:52:52;2.93;;;2.67;;
15393;SDS011;7795;47.986;11.868;2022-08-07T07:55:20;2.10;;;1.80;;
15393;SDS011;7795;47.986;11.868;2022-08-07T07:57:46;2.40;;;1.93;;
15393;SDS011;7795;47.986;11.868;2022-08-07T08:00:14;2.40;;;2.20;;
15393;SDS011;7795;47.986;11.868;2022-08-07T08:02:40;2.10;;;2.00;;
15393;SDS011;7795;47.986;11.868;2022-08-07T08:05:08;3.03;;;2.17;;
15393;SDS011;7795;47.986;11.868;2022-08-07T08:07:36;2.37;;;2.13;;
15393;SDS011;7795;47.986;11.868;2022-08-07T08:10:04;2.87;;;2.30;;
15393;SDS011;7795;47.986;11.868;2022-08-07T08:12:31;2.30;;;2.10;;
15393;SDS011;7795;47.986;11.868;2022-08-07T08:14:58;2.00;;;1.90;;
15393;SDS011;7795;47.986;11.868;2022-08-07T08:17:24;2.43;;;2.20;;
15393;SDS011;7795;47.986;11.868;2022-08-07T08:19:52;2.27;;;2.03;;
15393;SDS011;7795;47.986;11.868;2022-08-07T08:22:21;3.63;;;2.03;;
15393;SDS011;7795;47.986;11.868;2022-08-07T08:25:09;1.70;;;1.60;;
15393;SDS011;7795;47.986;11.868;2022-08-07T08:27:55;2.83;;;2.13;;
15393;SDS011;7795;47.986;11.868;2022-08-07T08:30:23;2.10;;;1.90;;
15393;SDS011;7795;47.986;11.868;2022-08-07T08:32:51;4.27;;;2.50;;
15393;SDS011;7795;47.986;11.868;2022-08-07T08:35:19;1.87;;;1.73;;
15393;SDS011;7795;47.986;11.868;2022-08-07T08:37:47;2.20;;;2.00;;
15393;SDS011;7795;47.986;11.868;2022-08-07T08:40:17;2.13;;;1.93;;
15393;SDS011;7795;47.986;11.868;2022-08-07T08:42:48;2.13;;;1.67;;
15393;SDS011;7795;47.986;11.868;2022-08-07T08:45:20;2.43;;;2.10;;
15393;SDS011;7795;47.986;11.868;2022-08-07T08:47:55;2.37;;;2.17;;
15393;SDS011;7795;47.986;11.868;2022-08-07T08:50:29;2.13;;;1.93;;
15393;SDS011;7795;47.986;11.868;2022-08-07T08:53:01;2.37;;;1.60;;
15393;SDS011;7795;47.986;11.868;2022-08-07T08:55:33;1.97;;;1.87;;
15393;SDS011;7795;47.986;11.868;2022-08-07T08:58:05;1.93;;;1.73;;
15393;SDS011;7795;47.986;11.868;2022-08-07T09:00:39;2.90;;;2.17;;
15393;SDS011;7795;47.986;11.868;2022-08-07T09:03:13;2.13;;;1.93;;
15393;SDS011;7795;47.986;11.868;2022-08-07T09:05:47;2.20;;;1.90;;
15393;SDS011;7795;47.986;11.868;2022-08-07T09:08:21;2.20;;;2.00;;
15393;SDS011;7795;47.986;11.868;2022-08-07T09:10:57;2.30;;;1.97;;
15393;SDS011;7795;47.986;11.868;2022-08-07T09:13:31;2.73;;;1.87;;
15393;SDS011;7795;47.986;11.868;2022-08-07T09:16:04;2.20;;;1.83;;
15393;SDS011;7795;47.986;11.868;2022-08-07T09:18:45;1.80;;;1.70;;
15393;SDS011;7795;47.986;11.868;2022-08-07T09:21:28;2.00;;;1.53;;
15393;SDS011;7795;47.986;11.868;2022-08-07T09:24:02;2.27;;;1.70;;
15393;SDS011;7795;47.986;11.868;2022-08-07T09:26:44;1.90;;;1.80;;
15393;SDS011;7795;47.986;11.868;2022-08-07T09:29:20;2.00;;;1.60;;
15393;SDS011;7795;47.986;11.868;2022-08-07T09:32:05;2.57;;;1.80;;
15393;SDS011;7795;47.986;11.868;2022-08-07T09:34:48;1.80;;;1.70;;
15393;SDS011;7795;47.986;11.868;2022-08-07T09:37:30;2.00;;;1.80;;
15393;SDS011;7795;47.986;11.868;2022-08-07T09:40:04;2.13;;;1.60;;
15393;SDS011;7795;47.986;11.868;2022-08-07T09:42:45;1.87;;;1.77;;
15393;SDS011;7795;47.986;11.868;2022-08-07T09:45:19;2.00;;;1.50;;
15393;SDS011;7795;47.986;11.868;2022-08-07T09:47:56;1.90;;;1.80;;
15393;SDS011;7795;47.986;11.868;2022-08-07T09:50:35;2.20;;;2.00;;
15393;SDS011;7795;47.986;11.868;2022-08-07T09:53:11;2.50;;;2.05;;
15393;SDS011;7795;47.986;11.868;2022-08-07T09:55:44;2.70;;;1.87;;
15393;SDS011;7795;47.986;11.868;2022-08-07T09:58:32;2.37;;;1.73;;
15393;SDS011;7795;47.986;11.868;2022-08-07T10:01:31;1.73;;;1.63;;
15393;SDS011;7795;47.986;11.868;2022-08-07T10:04:12;2.63;;;2.17;;
15393;SDS011;7795;47.986;11.868;2022-08-07T10:06:52;1.65;;;1.55;;
15393;SDS011;7795;47.986;11.868;2022-08-07T10:09:31;1.80;;;1.70;;
15393;SDS011;7795;47.986;11.868;2022-08-07T10:12:21;3.03;;;1.90;;
15393;SDS011;7795;47.986;11.868;2022-08-07T10:15:13;1.60;;;1.35;;
15393;SDS011;7795;47.986;11.868;2022-08-07T10:17:58;2.25;;;1.80;;
15393;SDS011;7795;47.986;11.868;2022-08-07T10:20:44;2.60;;;2.08;;
15393;SDS011;7795;47.986;11.868;2022-08-07T10:23:26;3.53;;;1.70;;
15393;SDS011;7795;47.986;11.868;2022-08-07T10:26:05;1.88;;;1.67;;
15393;SDS011;7795;47.986;11.868;2022-08-07T10:28:54;2.33;;;1.83;;
15393;SDS011;7795;47.986;11.868;2022-08-07T10:31:32;1.63;;;1.50;;
15393;SDS011;7795;47.986;11.868;2022-08-07T10:34:22;1.83;;;1.67;;
15393;SDS011;7795;47.986;11.868;2022-08-07T10:37:05;1.98;;;1.77;;
15393;SDS011;7795;47.986;11.868;2022-08-07T10:39:41;2.28;;;1.95;;
15393;SDS011;7795;47.986;11.868;2022-08-07T10:42:21;2.25;;;1.73;;
15393;SDS011;7795;47.986;11.868;2022-08-07T10:44:55;2.80;;;1.52;;
15393;SDS011;7795;47.986;11.868;2022-08-07T10:47:30;2.22;;;1.92;;
15393;SDS011;7795;47.986;11.868;2022-08-07T10:50:12;1.83;;;1.60;;
15393;SDS011;7795;47.986;11.868;2022-08-07T10:52:46;2.10;;;1.60;;
15393;SDS011;7795;47.986;11.868;2022-08-07T10:55:20;2.15;;;1.70;;
15393;SDS011;7795;47.986;11.868;2022-08-07T10:57:55;1.80;;;1.70;;
15393;SDS011;7795;47.986;11.868;2022-08-07T11:00:28;1.83;;;1.60;;
15393;SDS011;7795;47.986;11.868;2022-08-07T11:03:02;2.58;;;1.60;;
15393;SDS011;7795;47.986;11.868;2022-08-07T11:05:35;2.03;;;1.67;;
15393;SDS011;7795;47.986;11.868;2022-08-07T11:08:11;2.70;;;2.10;;
15393;SDS011;7795;47.986;11.868;2022-08-07T11:11:02;1.85;;;1.70;;
15393;SDS011;7795;47.986;11.868;2022-08-07T11:13:33;1.90;;;1.60;;
15393;SDS011;7795;47.986;11.868;2022-08-07T11:16:03;2.08;;;1.60;;
15393;SDS011;7795;47.986;11.868;2022-08-07T11:18:36;2.38;;;1.60;;
15393;SDS011;7795;47.986;11.868;2022-08-07T11:21:07;3.53;;;1.60;;
15393;SDS011;7795;47.986;11.868;2022-08-07T11:23:42;3.10;;;2.03;;
15393;SDS011;7795;47.986;11.868;2022-08-07T11:26:19;1.58;;;1.48;;
15393;SDS011;7795;47.986;11.868;2022-08-07T11:28:50;3.13;;;2.10;;
15393;SDS011;7795;47.986;11.868;2022-08-07T11:31:26;1.88;;;1.55;;
15393;SDS011;7795;47.986;11.868;2022-08-07T11:34:00;1.90;;;1.60;;
15393;SDS011;7795;47.986;11.868;2022-08-07T11:36:39;2.03;;;1.70;;
15393;SDS011;7795;47.986;11.868;2022-08-07T11:39:26;1.40;;;1.30;;
15393;SDS011;7795;47.986;11.868;2022-08-07T11:42:04;2.08;;;1.80;;
15393;SDS011;7795;47.986;11.868;2022-08-07T11:44:38;2.33;;;1.50;;
15393;SDS011;7795;47.986;11.868;2022-08-07T11:47:11;1.70;;;1.58;;
15393;SDS011;7795;47.986;11.868;2022-08-07T11:49:59;3.90;;;1.60;;
15393;SDS011;7795;47.986;11.868;2022-08-07T11:52:39;2.05;;;1.85;;
15393;SDS011;7795;47.986;11.868;2022-08-07T11:55:16;1.92;;;1.73;;
15393;SDS011;7795;47.986;11.868;2022-08-07T11:57:51;1.52;;;1.38;;
15393;SDS011;7795;47.986;11.868;2022-08-07T12:00:24;1.80;;;1.23;;
15393;SDS011;7795;47.986;11.868;2022-08-07T12:03:00;1.80;;;1.70;;
15393;SDS011;7795;47.986;11.868;2022-08-07T12:05:47;2.72;;;1.40;;
15393;SDS011;7795;47.986;11.868;2022-08-07T12:08:24;1.65;;;1.55;;
15393;SDS011;7795;47.986;11.868;2022-08-07T12:10:55;1.50;;;1.40;;
15393;SDS011;7795;47.986;11.868;2022-08-07T12:13:24;1.35;;;1.25;;
15393;SDS011;7795;47.986;11.868;2022-08-07T12:15:54;1.85;;;1.42;;
15393;SDS011;7795;47.986;11.868;2022-08-07T12:18:30;1.63;;;1.52;;
15393;SDS011;7795;47.986;11.868;2022-08-07T12:21:08;2.03;;;1.70;;
15393;SDS011;7795;47.986;11.868;2022-08-07T12:23:45;1.88;;;1.70;;
15393;SDS011;7795;47.986;11.868;2022-08-07T12:26:18;1.55;;;1.40;;
15393;SDS011;7795;47.986;11.868;2022-08-07T12:28:51;1.58;;;1.48;;
15393;SDS011;7795;47.986;11.868;2022-08-07T12:31:26;1.70;;;1.60;;
15393;SDS011;7795;47.986;11.868;2022-08-07T12:33:57;1.77;;;1.52;;
15393;SDS011;7795;47.986;11.868;2022-08-07T12:36:25;2.70;;;1.58;;
15393;SDS011;7795;47.986;11.868;2022-08-07T12:38:52;2.10;;;1.50;;
15393;SDS011;7795;47.986;11.868;2022-08-07T12:41:20;1.90;;;1.70;;
15393;SDS011;7795;47.986;11.868;2022-08-07T12:43:49;1.83;;;1.70;;
15393;SDS011;7795;47.986;11.868;2022-08-07T12:46:25;1.40;;;1.30;;
15393;SDS011;7795;47.986;11.868;2022-08-07T12:49:01;2.30;;;1.85;;
15393;SDS011;7795;47.986;11.868;2022-08-07T12:51:36;1.75;;;1.50;;
15393;SDS011;7795;47.986;11.868;2022-08-07T12:54:08;1.67;;;1.33;;
15393;SDS011;7795;47.986;11.868;2022-08-07T12:56:42;1.73;;;1.50;;
15393;SDS011;7795;47.986;11.868;2022-08-07T12:59:11;1.35;;;1.10;;
15393;SDS011;7795;47.986;11.868;2022-08-07T13:01:44;1.70;;;1.60;;
15393;SDS011;7795;47.986;11.868;2022-08-07T13:04:32;1.77;;;1.50;;
15393;SDS011;7795;47.986;11.868;2022-08-07T13:07:16;2.25;;;1.70;;
15393;SDS011;7795;47.986;11.868;2022-08-07T13:09:58;1.80;;;1.52;;
15393;SDS011;7795;47.986;11.868;2022-08-07T13:12:36;1.67;;;1.30;;
15393;SDS011;7795;47.986;11.868;2022-08-07T13:15:21;1.95;;;1.40;;
15393;SDS011;7795;47.986;11.868;2022-08-07T13:17:58;1.58;;;1.25;;
15393;SDS011;7795;47.986;11.868;2022-08-07T13:20:39;2.17;;;1.50;;
15393;SDS011;7795;47.986;11.868;2022-08-07T13:23:13;3.00;;;1.65;;
15393;SDS011;7795;47.986;11.868;2022-08-07T13:25:44;1.67;;;1.40;;
15393;SDS011;7795;47.986;11.868;2022-08-07T13:28:15;1.85;;;1.70;;
15393;SDS011;7795;47.986;11.868;2022-08-07T13:30:48;1.65;;;1.40;;
15393;SDS011;7795;47.986;11.868;2022-08-07T13:33:23;1.80;;;1.70;;
15393;SDS011;7795;47.986;11.868;2022-08-07T13:35:54;2.25;;;1.60;;
15393;SDS011;7795;47.986;11.868;2022-08-07T13:38:26;1.33;;;1.23;;
15393;SDS011;7795;47.986;11.868;2022-08-07T13:40:56;1.50;;;1.40;;
15393;SDS011;7795;47.986;11.868;2022-08-07T13:43:28;1.40;;;1.30;;
15393;SDS011;7795;47.986;11.868;2022-08-07T13:45:58;1.63;;;1.33;;
15393;SDS011;7795;47.986;11.868;2022-08-07T13:48:27;1.88;;;1.20;;
15393;SDS011;7795;47.986;11.868;2022-08-07T13:50:55;1.98;;;1.20;;
15393;SDS011;7795;47.986;11.868;2022-08-07T13:53:28;1.85;;;1.35;;
15393;SDS011;7795;47.986;11.868;2022-08-07T13:55:55;1.80;;;1.42;;
15393;SDS011;7795;47.986;11.868;2022-08-07T13:58:23;1.70;;;1.30;;
15393;SDS011;7795;47.986;11.868;2022-08-07T14:01:09;2.42;;;1.20;;
15393;SDS011;7795;47.986;11.868;2022-08-07T14:03:37;1.80;;;1.30;;
15393;SDS011;7795;47.986;11.868;2022-08-07T14:06:05;1.27;;;1.17;;
15393;SDS011;7795;47.986;11.868;2022-08-07T14:08:34;1.65;;;1.52;;
15393;SDS011;7795;47.986;11.868;2022-08-07T14:11:06;1.98;;;1.30;;
15393;SDS011;7795;47.986;11.868;2022-08-07T14:13:36;1.30;;;1.20;;
15393;SDS011;7795;47.986;11.868;2022-08-07T14:16:04;4.30;;;2.42;;
15393;SDS011;7795;47.986;11.868;2022-08-07T14:18:37;2.13;;;1.40;;
15393;SDS011;7795;47.986;11.868;2022-08-07T14:21:08;2.10;;;1.80;;
15393;SDS011;7795;47.986;11.868;2022-08-07T14:23:38;2.15;;;1.30;;
15393;SDS011;7795;47.986;11.868;2022-08-07T14:26:09;1.40;;;1.30;;
15393;SDS011;7795;47.986;11.868;2022-08-07T14:28:42;2.20;;;1.38;;
15393;SDS011;7795;47.986;11.868;2022-08-07T14:31:10;1.65;;;1.50;;
15393;SDS011;7795;47.986;11.868;2022-08-07T14:33:37;2.22;;;1.33;;
15393;SDS011;7795;47.986;11.868;2022-08-07T14:36:04;2.53;;;1.60;;
15393;SDS011;7795;47.986;11.868;2022-08-07T14:38:32;1.50;;;1.40;;
15393;SDS011;7795;47.986;11.868;2022-08-07T14:41:00;2.70;;;1.63;;
15393;SDS011;7795;47.986;11.868;2022-08-07T14:43:29;2.53;;;1.48;;
15393;SDS011;7795;47.986;11.868;2022-08-07T14:45:58;1.85;;;1.42;;
15393;SDS011;7795;47.986;11.868;2022-08-07T14:48:25;2.50;;;1.60;;
15393;SDS011;7795;47.986;11.868;2022-08-07T14:50:53;1.40;;;1.30;;
15393;SDS011;7795;47.986;11.868;2022-08-07T14:53:22;1.88;;;1.60;;
15393;SDS011;7795;47.986;11.868;2022-08-07T14:55:50;1.75;;;1.50;;
15393;SDS011;7795;47.986;11.868;2022-08-07T14:58:21;1.65;;;1.52;;
15393;SDS011;7795;47.986;11.868;2022-08-07T15:00:49;2.28;;;1.60;;
15393;SDS011;7795;47.986;11.868;2022-08-07T15:03:16;2.83;;;1.70;;
15393;SDS011;7795;47.986;11.868;2022-08-07T15:05:47;3.58;;;1.85;;
15393;SDS011;7795;47.986;11.868;2022-08-07T15:08:20;2.72;;;1.60;;
15393;SDS011;7795;47.986;11.868;2022-08-07T15:10:50;1.70;;;1.45;;
15393;SDS011;7795;47.986;11.868;2022-08-07T15:13:23;2.95;;;1.63;;